Time;durP1;ratioP1;P1;durP2;ratioP2;P2;SDS_P1;SDS_P2;PMS_P1;PMS_P2;Temp;Humidity;BMP_temperature;BMP_pressure;BME280_temperature;BME280_humidity;BME280_pressure;Samples;Min_cycle;Max_cycle;Signal;HPM_P1;HPM_P2
2022/10/29 00:01:24;;;;;;;10.90;7.20;;;13.30;99.90;;;;;;5042043;28;20634;-88
2022/10/29 00:03:51;;;;;;;9.60;6.83;;;13.20;99.90;;;;;;5039994;28;21026;-88
2022/10/29 00:06:17;;;;;;;14.47;9.80;;;12.90;99.90;;;;;;5039535;28;20678;-88
2022/10/29 00:08:45;;;;;;;12.90;7.93;;;13.00;99.90;;;;;;5050806;28;20642;-87
2022/10/29 00:11:18;;;;;;;14.43;9.17;;;13.20;99.90;;;;;;5041129;28;20626;-88
2022/10/29 00:13:45;;;;;;;12.23;7.57;;;13.10;99.90;;;;;;5044859;28;20633;-88
2022/10/29 00:16:14;;;;;;;15.70;7.67;;;13.20;99.90;;;;;;5040636;28;20649;-88
2022/10/29 00:18:42;;;;;;;10.97;7.30;;;13.10;99.90;;;;;;5044004;28;20638;-87
2022/10/29 00:21:11;;;;;;;13.30;7.20;;;13.00;99.90;;;;;;5041570;28;20617;-88
2022/10/29 00:23:39;;;;;;;13.80;8.33;;;12.70;99.90;;;;;;5045198;28;20634;-88
2022/10/29 00:26:07;;;;;;;17.57;8.53;;;12.70;99.90;;;;;;5044352;28;20677;-88
2022/10/29 00:28:35;;;;;;;13.17;8.00;;;12.80;99.90;;;;;;5044415;28;20623;-88
2022/10/29 00:31:04;;;;;;;17.10;7.63;;;12.60;99.90;;;;;;5041797;28;20622;-88
2022/10/29 00:33:31;;;;;;;19.40;8.60;;;12.50;99.90;;;;;;5053552;28;20634;-89
2022/10/29 00:36:00;;;;;;;13.97;7.83;;;13.00;99.90;;;;;;5041035;28;21225;-88
2022/10/29 00:38:27;;;;;;;12.53;7.67;;;12.90;99.90;;;;;;5044216;28;20641;-88
2022/10/29 00:40:55;;;;;;;9.67;7.27;;;12.90;99.90;;;;;;5038156;28;20622;-87
2022/10/29 00:43:24;;;;;;;14.30;8.83;;;12.80;99.90;;;;;;5037586;28;20643;-87
2022/10/29 00:45:54;;;;;;;15.53;7.83;;;12.80;99.90;;;;;;5044333;28;21609;-88
2022/10/29 00:48:23;;;;;;;15.23;8.60;;;12.60;99.90;;;;;;5047492;28;20939;-87
2022/10/29 00:50:51;;;;;;;14.20;8.40;;;12.40;99.90;;;;;;5042678;28;20629;-88
2022/10/29 00:53:22;;;;;;;13.20;8.93;;;12.80;99.90;;;;;;5043787;28;20612;-88
2022/10/29 00:55:49;;;;;;;15.03;9.80;;;12.80;99.90;;;;;;5040107;28;20619;-88
2022/10/29 00:58:16;;;;;;;11.40;7.87;;;12.40;99.90;;;;;;5048456;28;20657;-87
2022/10/29 01:00:44;;;;;;;10.93;8.07;;;12.40;99.90;;;;;;5041235;28;20630;-88
2022/10/29 01:03:12;;;;;;;10.00;7.73;;;12.50;99.90;;;;;;5044308;28;20618;-88
2022/10/29 01:05:40;;;;;;;10.80;8.93;;;12.30;99.90;;;;;;5040393;28;20666;-87
2022/10/29 01:08:07;;;;;;;12.93;8.47;;;12.60;99.90;;;;;;5040615;28;20645;-88
2022/10/29 01:10:47;;;;;;;11.17;8.23;;;12.30;99.90;;;;;;5040370;28;20641;-87
2022/10/29 01:13:28;;;;;;;15.17;8.23;;;12.70;99.90;;;;;;5045431;28;20643;-88
2022/10/29 01:16:02;;;;;;;9.60;7.87;;;12.40;99.90;;;;;;5047414;28;20626;-88
2022/10/29 01:18:36;;;;;;;12.07;7.80;;;12.50;99.90;;;;;;5044433;28;20626;-88
2022/10/29 01:21:32;;;;;;;16.80;9.10;;;12.50;99.90;;;;;;5049089;28;20621;-87
2022/10/29 01:24:38;;;;;;;10.03;7.87;;;12.90;99.90;;;;;;5040654;28;20636;-88
2022/10/29 01:27:43;;;;;;;16.03;8.57;;;12.60;99.90;;;;;;5038018;28;20653;-88
2022/10/29 01:30:18;;;;;;;10.43;7.40;;;12.80;99.90;;;;;;5039990;28;21151;-88
2022/10/29 01:33:05;;;;;;;12.07;8.43;;;12.70;99.90;;;;;;5031379;28;20633;-88
2022/10/29 01:35:40;;;;;;;11.73;6.87;;;12.80;99.90;;;;;;5038484;28;20670;-88
2022/10/29 01:38:19;;;;;;;12.73;8.03;;;12.40;99.90;;;;;;5040956;28;20633;-88
2022/10/29 01:40:53;;;;;;;12.37;8.30;;;12.70;99.90;;;;;;5042911;28;20630;-88
2022/10/29 01:43:26;;;;;;;10.93;7.60;;;12.80;99.90;;;;;;5037829;28;20630;-88
2022/10/29 01:45:56;;;;;;;16.50;7.70;;;12.50;99.90;;;;;;5038101;28;20993;-87
2022/10/29 01:48:29;;;;;;;9.80;7.20;;;12.50;99.90;;;;;;5041417;28;20627;-89
2022/10/29 01:51:00;;;;;;;11.10;8.30;;;12.50;99.90;;;;;;5037661;28;21244;-88
2022/10/29 01:53:29;;;;;;;14.40;8.40;;;12.70;99.90;;;;;;5043775;28;20627;-88
2022/10/29 01:55:56;;;;;;;12.53;8.13;;;12.80;99.90;;;;;;5043860;28;20673;-88
2022/10/29 01:58:24;;;;;;;13.70;7.83;;;12.40;99.90;;;;;;5050735;28;21171;-88
2022/10/29 02:00:58;;;;;;;13.33;8.23;;;12.90;99.90;;;;;;5044925;28;20659;-88
2022/10/29 02:03:36;;;;;;;14.80;8.03;;;12.80;99.90;;;;;;5048394;28;20619;-88
2022/10/29 02:06:12;;;;;;;9.77;7.50;;;12.50;99.90;;;;;;5044052;28;21244;-88
2022/10/29 02:08:48;;;;;;;14.47;7.60;;;12.70;99.90;;;;;;5045702;28;20626;-88
2022/10/29 02:11:21;;;;;;;13.37;7.63;;;12.40;99.90;;;;;;5046255;28;21194;-88
2022/10/29 02:13:54;;;;;;;9.60;8.53;;;12.70;99.90;;;;;;5045470;28;20621;-87
2022/10/29 02:16:23;;;;;;;13.90;7.40;;;12.50;99.90;;;;;;5049555;28;20683;-88
2022/10/29 02:18:52;;;;;;;16.57;8.20;;;12.60;99.90;;;;;;5051306;28;20633;-88
2022/10/29 02:21:20;;;;;;;15.50;9.13;;;12.20;99.90;;;;;;5045479;28;20630;-88
2022/10/29 02:23:48;;;;;;;14.03;7.90;;;12.30;99.90;;;;;;5051068;28;20640;-88
2022/10/29 02:26:15;;;;;;;12.10;9.30;;;12.50;99.90;;;;;;5040786;28;20643;-88
2022/10/29 02:28:42;;;;;;;16.70;8.07;;;12.30;99.90;;;;;;5043869;28;20640;-88
2022/10/29 02:31:09;;;;;;;14.10;8.10;;;12.20;99.90;;;;;;5045489;28;20625;-88
2022/10/29 02:33:36;;;;;;;15.77;8.30;;;12.40;99.90;;;;;;5042871;28;20638;-88
2022/10/29 02:36:05;;;;;;;11.93;6.97;;;12.30;99.90;;;;;;5047006;28;20754;-88
2022/10/29 02:38:32;;;;;;;12.77;7.80;;;12.20;99.90;;;;;;5046243;28;20752;-89
2022/10/29 02:40:59;;;;;;;9.47;7.83;;;12.50;99.90;;;;;;5052544;28;20630;-88
2022/10/29 02:43:26;;;;;;;12.80;8.53;;;12.70;99.90;;;;;;5047386;28;20625;-89
2022/10/29 02:46:11;;;;;;;10.07;7.13;;;12.70;99.90;;;;;;5042954;28;21213;-87
2022/10/29 02:48:38;;;;;;;10.87;7.50;;;12.70;99.90;;;;;;5042564;28;20641;-89
2022/10/29 02:51:06;;;;;;;14.27;7.77;;;12.70;99.90;;;;;;5042585;28;21171;-88
2022/10/29 02:53:33;;;;;;;10.60;6.90;;;12.80;99.90;;;;;;5042420;28;20629;-88
2022/10/29 02:56:00;;;;;;;8.83;7.13;;;12.50;99.90;;;;;;5042691;28;20688;-88
2022/10/29 02:58:27;;;;;;;15.00;8.47;;;12.40;99.90;;;;;;5050272;28;20644;-88
2022/10/29 03:00:53;;;;;;;11.37;7.30;;;12.70;99.90;;;;;;5048676;28;20625;-88
2022/10/29 03:03:20;;;;;;;12.83;8.50;;;12.40;99.90;;;;;;5044839;28;21194;-88
2022/10/29 03:05:47;;;;;;;11.83;7.80;;;12.70;99.90;;;;;;5045822;28;20627;-87
2022/10/29 03:08:16;;;;;;;18.47;8.57;;;12.80;99.90;;;;;;5040595;28;20630;-88
2022/10/29 03:10:43;;;;;;;12.23;7.33;;;12.60;99.90;;;;;;5037337;28;20629;-88
2022/10/29 03:13:10;;;;;;;9.63;6.90;;;12.90;99.90;;;;;;5044862;28;20633;-88
2022/10/29 03:15:38;;;;;;;14.27;7.23;;;12.80;99.90;;;;;;5038658;28;21193;-88
2022/10/29 03:18:05;;;;;;;11.47;7.37;;;12.50;99.90;;;;;;5043623;28;21209;-88
2022/10/29 03:20:32;;;;;;;13.27;6.90;;;12.80;99.90;;;;;;5038743;28;20623;-88
2022/10/29 03:22:59;;;;;;;13.13;7.63;;;12.60;99.90;;;;;;5036337;28;20611;-88
2022/10/29 03:25:27;;;;;;;10.83;7.80;;;12.40;99.90;;;;;;5038281;28;20627;-89
2022/10/29 03:27:53;;;;;;;10.53;7.40;;;13.00;99.90;;;;;;5039975;28;20747;-88
2022/10/29 03:30:21;;;;;;;10.70;7.00;;;12.80;99.90;;;;;;5042070;28;20630;-88
2022/10/29 03:32:48;;;;;;;11.80;7.30;;;12.70;99.90;;;;;;5041357;28;20638;-89
2022/10/29 03:35:16;;;;;;;9.40;7.57;;;12.70;99.90;;;;;;5041938;28;20630;-88
2022/10/29 03:37:43;;;;;;;10.77;7.33;;;13.00;99.90;;;;;;5046082;28;20680;-88
2022/10/29 03:40:10;;;;;;;10.40;7.20;;;12.80;99.90;;;;;;5038862;28;20630;-89
2022/10/29 03:42:39;;;;;;;13.23;7.00;;;13.10;99.90;;;;;;5043903;28;21080;-89
2022/10/29 03:45:07;;;;;;;11.47;7.00;;;13.20;99.90;;;;;;5036415;28;20627;-88
2022/10/29 03:47:33;;;;;;;14.40;7.77;;;12.90;99.90;;;;;;5039971;28;20654;-88
2022/10/29 03:50:01;;;;;;;10.90;8.10;;;12.60;99.90;;;;;;5043064;28;20609;-88
2022/10/29 03:52:29;;;;;;;10.23;7.40;;;12.70;99.90;;;;;;5040427;28;20652;-88
2022/10/29 03:54:56;;;;;;;18.03;8.00;;;13.00;99.90;;;;;;5044689;28;20653;-88
2022/10/29 03:57:22;;;;;;;8.80;7.20;;;12.90;99.90;;;;;;5048333;28;20685;-88
2022/10/29 03:59:50;;;;;;;10.40;7.97;;;12.60;99.90;;;;;;5042095;28;20630;-88
2022/10/29 04:02:17;;;;;;;12.50;7.53;;;12.70;99.90;;;;;;5041992;28;20631;-88
2022/10/29 04:04:44;;;;;;;10.30;7.43;;;12.60;99.90;;;;;;5040763;28;20638;-88
2022/10/29 04:07:12;;;;;;;10.50;6.60;;;12.90;99.90;;;;;;5037761;28;20643;-88
2022/10/29 04:09:38;;;;;;;11.50;7.20;;;12.70;99.90;;;;;;5042878;28;20633;-88
2022/10/29 04:12:06;;;;;;;11.33;7.00;;;12.80;99.90;;;;;;5041750;28;20622;-89
2022/10/29 04:14:33;;;;;;;8.77;6.87;;;12.90;99.90;;;;;;5036164;28;20640;-88
2022/10/29 04:17:02;;;;;;;11.30;6.17;;;12.50;99.90;;;;;;5041380;28;20785;-88
2022/10/29 04:19:29;;;;;;;13.40;9.60;;;12.70;99.90;;;;;;5039635;28;20661;-88
2022/10/29 04:21:56;;;;;;;12.67;6.63;;;13.00;99.90;;;;;;5042969;28;20637;-87
2022/10/29 04:24:22;;;;;;;9.70;7.30;;;12.90;99.90;;;;;;5040640;28;20610;-88
2022/10/29 04:26:49;;;;;;;11.73;7.20;;;13.00;99.90;;;;;;5041431;28;20658;-87
2022/10/29 04:29:16;;;;;;;9.20;7.30;;;12.80;99.90;;;;;;5046414;28;20966;-87
2022/10/29 04:31:43;;;;;;;13.07;8.37;;;12.70;99.90;;;;;;5048288;28;20632;-87
2022/10/29 04:34:11;;;;;;;10.50;6.50;;;12.60;99.90;;;;;;5042044;28;20626;-89
2022/10/29 04:36:37;;;;;;;8.90;6.63;;;12.60;99.90;;;;;;5047480;28;20692;-87
2022/10/29 04:39:05;;;;;;;15.70;7.13;;;12.80;99.90;;;;;;5045676;28;20625;-88
2022/10/29 04:41:31;;;;;;;7.47;6.73;;;12.80;99.90;;;;;;5035801;28;20685;-86
2022/10/29 04:43:58;;;;;;;14.77;7.50;;;12.60;99.90;;;;;;5036906;28;20645;-87
2022/10/29 04:46:25;;;;;;;10.90;7.10;;;12.90;99.90;;;;;;5039664;28;20650;-86
2022/10/29 04:48:52;;;;;;;13.70;7.60;;;12.50;99.90;;;;;;5045987;28;21463;-87
2022/10/29 04:51:21;;;;;;;12.60;8.13;;;12.60;99.90;;;;;;5041633;28;20637;-88
2022/10/29 04:53:49;;;;;;;11.77;7.20;;;12.90;99.90;;;;;;5042605;28;20637;-87
2022/10/29 04:56:16;;;;;;;8.20;7.40;;;12.90;99.90;;;;;;5039186;28;20686;-87
2022/10/29 04:58:43;;;;;;;11.07;7.93;;;12.50;99.90;;;;;;5042824;28;21185;-87
2022/10/29 05:01:10;;;;;;;14.83;7.90;;;12.80;99.90;;;;;;5044376;28;20630;-87
2022/10/29 05:03:36;;;;;;;17.20;7.87;;;12.50;99.90;;;;;;5045587;28;20630;-87
2022/10/29 05:06:04;;;;;;;10.33;7.30;;;12.50;99.90;;;;;;5046026;28;20687;-87
2022/10/29 05:08:33;;;;;;;9.73;7.77;;;12.70;99.90;;;;;;5059798;28;20622;-88
2022/10/29 05:11:02;;;;;;;11.03;8.40;;;12.60;99.90;;;;;;5050968;28;20632;-87
2022/10/29 05:13:29;;;;;;;14.47;9.03;;;12.60;99.90;;;;;;5039615;28;20622;-88
2022/10/29 05:15:55;;;;;;;13.73;9.07;;;12.50;99.90;;;;;;5041901;28;20665;-88
2022/10/29 05:18:23;;;;;;;29.83;9.37;;;12.10;99.90;;;;;;5036083;28;21557;-87
2022/10/29 05:20:53;;;;;;;15.10;8.20;;;12.20;99.90;;;;;;5039010;28;20622;-87
2022/10/29 05:23:20;;;;;;;11.40;8.33;;;12.30;99.90;;;;;;5041101;28;20621;-87
2022/10/29 05:25:50;;;;;;;11.40;7.30;;;12.30;99.90;;;;;;5039192;28;20634;-87
2022/10/29 05:28:18;;;;;;;10.07;7.60;;;12.20;99.90;;;;;;5041717;28;20619;-88
2022/10/29 05:30:46;;;;;;;13.83;8.87;;;12.20;99.90;;;;;;5042800;28;20656;-87
2022/10/29 05:33:15;;;;;;;17.87;8.87;;;12.10;99.90;;;;;;5040161;28;20622;-88
2022/10/29 05:35:42;;;;;;;15.80;8.90;;;11.70;99.90;;;;;;5059570;28;20629;-88
2022/10/29 05:38:10;;;;;;;12.87;7.73;;;11.90;99.90;;;;;;5057768;28;20660;-87
2022/10/29 05:40:37;;;;;;;14.10;7.20;;;12.10;99.90;;;;;;5061053;28;20639;-86
2022/10/29 05:43:05;;;;;;;9.57;7.50;;;11.80;99.90;;;;;;5060454;28;20640;-87
2022/10/29 05:45:32;;;;;;;15.53;7.73;;;11.70;99.90;;;;;;5057680;28;20619;-87
2022/10/29 05:48:01;;;;;;;10.53;8.40;;;11.60;99.90;;;;;;5068295;28;20642;-87
2022/10/29 05:50:28;;;;;;;12.83;7.63;;;12.00;99.90;;;;;;5062122;28;20621;-87
2022/10/29 05:52:56;;;;;;;10.43;7.70;;;11.70;99.90;;;;;;5055622;28;20632;-87
2022/10/29 05:55:23;;;;;;;15.60;8.27;;;11.70;99.90;;;;;;5055348;28;20622;-88
2022/10/29 05:57:50;;;;;;;10.17;8.23;;;11.70;99.90;;;;;;5048075;28;20692;-87
2022/10/29 06:00:18;;;;;;;11.07;9.03;;;11.70;99.90;;;;;;5046545;28;20629;-87
2022/10/29 06:02:45;;;;;;;11.60;8.40;;;11.80;99.90;;;;;;5048011;28;20633;-87
2022/10/29 06:05:12;;;;;;;9.40;6.83;;;11.70;99.90;;;;;;5039668;28;20622;-87
2022/10/29 06:07:39;;;;;;;9.60;7.27;;;11.90;99.90;;;;;;5045274;28;21232;-87
2022/10/29 06:10:07;;;;;;;16.30;8.40;;;11.50;99.90;;;;;;5042824;28;20633;-87
2022/10/29 06:12:34;;;;;;;11.83;7.83;;;11.80;99.90;;;;;;5040896;28;20626;-87
2022/10/29 06:15:01;;;;;;;7.63;6.80;;;11.60;99.90;;;;;;5046422;28;20630;-87
2022/10/29 06:17:29;;;;;;;10.73;7.30;;;11.90;99.90;;;;;;5038805;28;20670;-85
2022/10/29 06:19:56;;;;;;;8.57;7.50;;;11.60;99.90;;;;;;5042904;28;20645;-85
2022/10/29 06:22:22;;;;;;;17.53;9.00;;;11.50;99.90;;;;;;5046971;28;20642;-87
2022/10/29 06:24:49;;;;;;;15.03;7.60;;;11.50;99.90;;;;;;5037693;28;20665;-86
2022/10/29 06:27:17;;;;;;;11.33;7.83;;;11.60;99.90;;;;;;5042824;28;20659;-86
2022/10/29 06:29:44;;;;;;;10.63;8.37;;;11.80;99.90;;;;;;5041169;28;20633;-85
2022/10/29 06:32:11;;;;;;;10.87;7.90;;;11.60;99.90;;;;;;5043994;28;20651;-86
2022/10/29 06:34:39;;;;;;;14.27;8.30;;;11.80;99.90;;;;;;5042833;28;20622;-88
2022/10/29 06:37:06;;;;;;;16.57;8.73;;;11.90;99.90;;;;;;5038103;28;20686;-87
2022/10/29 06:39:33;;;;;;;12.50;8.80;;;12.00;99.90;;;;;;5039538;28;20637;-87
2022/10/29 06:42:00;;;;;;;9.10;7.40;;;12.00;99.90;;;;;;5041977;28;20621;-87
2022/10/29 06:44:26;;;;;;;12.83;7.73;;;11.70;99.90;;;;;;5043006;28;20633;-87
2022/10/29 06:46:53;;;;;;;14.23;7.90;;;12.00;99.90;;;;;;5048224;28;20700;-87
2022/10/29 06:49:20;;;;;;;12.20;8.10;;;11.80;99.90;;;;;;5038775;28;20622;-87
2022/10/29 06:51:48;;;;;;;16.03;7.90;;;11.90;99.90;;;;;;5044270;28;20618;-87
2022/10/29 06:54:15;;;;;;;12.00;7.73;;;12.10;99.90;;;;;;5045461;28;20629;-87
2022/10/29 06:56:42;;;;;;;11.00;8.00;;;11.80;99.90;;;;;;5046302;28;20664;-88
2022/10/29 06:59:08;;;;;;;12.90;8.20;;;11.80;99.90;;;;;;5043619;28;20660;-86
2022/10/29 07:01:35;;;;;;;8.70;7.80;;;12.10;99.90;;;;;;5045971;28;20638;-86
2022/10/29 07:04:02;;;;;;;14.50;7.60;;;12.40;99.90;;;;;;5050113;28;20625;-88
2022/10/29 07:06:32;;;;;;;13.60;7.43;;;12.30;99.90;;;;;;5037079;28;20653;-88
2022/10/29 07:09:01;;;;;;;7.97;6.93;;;12.30;99.90;;;;;;5048654;28;20602;-88
2022/10/29 07:11:28;;;;;;;17.00;7.13;;;12.30;99.90;;;;;;5038773;28;20794;-88
2022/10/29 07:13:55;;;;;;;16.10;12.80;;;12.40;99.90;;;;;;5040834;28;20732;-88
2022/10/29 07:16:22;;;;;;;20.53;11.63;;;12.70;99.90;;;;;;5042587;28;20653;-88
2022/10/29 07:18:48;;;;;;;13.63;10.03;;;12.80;99.90;;;;;;5038504;28;20665;-88
2022/10/29 07:21:15;;;;;;;12.00;9.03;;;12.70;99.90;;;;;;5038570;28;20648;-88
2022/10/29 07:23:42;;;;;;;10.93;8.07;;;12.80;99.90;;;;;;5038017;28;20638;-88
2022/10/29 07:26:10;;;;;;;9.63;8.30;;;13.30;99.90;;;;;;5042672;28;20645;-88
2022/10/29 07:28:37;;;;;;;15.93;11.77;;;13.30;99.90;;;;;;5042897;28;20622;-89
2022/10/29 07:31:06;;;;;;;15.47;9.73;;;13.40;99.90;;;;;;5042431;28;20630;-88
2022/10/29 07:33:33;;;;;;;14.00;9.17;;;13.40;99.90;;;;;;5039459;28;20966;-87
2022/10/29 07:36:00;;;;;;;14.50;9.17;;;13.50;99.90;;;;;;5045783;28;21204;-88
2022/10/29 07:38:27;;;;;;;13.57;8.70;;;13.40;99.90;;;;;;5055257;28;20739;-87
2022/10/29 07:40:54;;;;;;;10.20;7.00;;;13.30;99.90;;;;;;5039894;28;20615;-87
2022/10/29 07:43:22;;;;;;;15.03;7.83;;;13.40;99.90;;;;;;5037754;28;20626;-86
2022/10/29 07:45:51;;;;;;;8.97;6.87;;;13.40;99.90;;;;;;5048316;28;20630;-89
2022/10/29 07:48:21;;;;;;;14.37;7.53;;;13.60;99.90;;;;;;5045260;28;20614;-88
2022/10/29 07:50:48;;;;;;;12.53;7.10;;;13.70;99.90;;;;;;5041535;28;20683;-88
2022/10/29 07:53:15;;;;;;;10.57;6.50;;;13.90;99.90;;;;;;5048073;28;20640;-88
2022/10/29 07:55:43;;;;;;;14.17;7.03;;;13.90;99.90;;;;;;5036041;28;20644;-87
2022/10/29 07:58:12;;;;;;;12.80;7.13;;;14.10;99.90;;;;;;5041014;28;20760;-88
2022/10/29 08:00:41;;;;;;;10.47;6.93;;;14.10;99.90;;;;;;5045837;28;20618;-88
2022/10/29 08:03:09;;;;;;;11.77;6.17;;;14.10;99.90;;;;;;5047347;28;20614;-89
2022/10/29 08:05:36;;;;;;;16.67;6.53;;;14.20;99.90;;;;;;5041731;28;20606;-88
2022/10/29 08:08:04;;;;;;;9.03;6.83;;;14.50;99.90;;;;;;5043323;28;20642;-88
2022/10/29 08:10:32;;;;;;;11.10;6.43;;;14.60;99.90;;;;;;5037279;28;20734;-87
2022/10/29 08:13:00;;;;;;;12.03;6.03;;;14.60;99.90;;;;;;5050526;28;20625;-87
2022/10/29 08:15:28;;;;;;;17.80;6.90;;;14.80;99.90;;;;;;5042898;28;20594;-89
2022/10/29 08:17:57;;;;;;;12.07;6.53;;;15.00;99.90;;;;;;5046114;28;20822;-89
2022/10/29 08:20:26;;;;;;;12.43;5.93;;;15.10;99.90;;;;;;5042763;28;20640;-90
2022/10/29 08:22:53;;;;;;;8.30;5.60;;;15.50;99.90;;;;;;5042252;28;20753;-90
2022/10/29 08:25:20;;;;;;;7.60;5.90;;;16.00;99.90;;;;;;5041701;28;20631;-89
2022/10/29 08:27:58;;;;;;;15.70;6.43;;;16.20;99.90;;;;;;5044609;28;20641;-87
2022/10/29 08:30:25;;;;;;;12.40;6.97;;;16.50;99.90;;;;;;5044664;28;20679;-90
2022/10/29 08:32:52;;;;;;;13.17;6.97;;;16.60;99.90;;;;;;5042643;28;20633;-89
2022/10/29 08:35:20;;;;;;;7.63;5.80;;;16.70;99.90;;;;;;5042419;28;20615;-87
2022/10/29 08:37:47;;;;;;;8.80;6.00;;;16.90;99.90;;;;;;5040488;28;20692;-90
2022/10/29 08:40:24;;;;;;;12.67;5.77;;;17.10;99.90;;;;;;5024647;28;20631;-90
2022/10/29 08:43:13;;;;;;;11.50;5.53;;;17.10;99.90;;;;;;5040063;28;20614;-90
2022/10/29 08:45:45;;;;;;;8.70;5.47;;;17.30;99.90;;;;;;5041615;28;20665;-89
2022/10/29 08:48:25;;;;;;;17.13;6.73;;;17.50;99.90;;;;;;5043335;28;20621;-88
2022/10/29 08:51:00;;;;;;;9.23;5.40;;;17.80;99.90;;;;;;5041389;28;20635;-89
2022/10/29 08:53:36;;;;;;;12.20;5.73;;;17.80;99.90;;;;;;5048019;28;20614;-89
2022/10/29 08:56:15;;;;;;;10.90;5.47;;;17.70;99.90;;;;;;5051031;28;20740;-88
2022/10/29 08:58:51;;;;;;;12.60;5.20;;;17.70;99.90;;;;;;5049859;28;20672;-88
2022/10/29 09:01:20;;;;;;;9.63;4.80;;;17.90;99.90;;;;;;5056436;28;20621;-88
2022/10/29 09:03:47;;;;;;;8.00;3.50;;;18.10;99.90;;;;;;5043547;28;20633;-89
2022/10/29 09:06:23;;;;;;;13.87;5.70;;;18.30;99.90;;;;;;5045174;28;20672;-89
2022/10/29 09:09:23;;;;;;;7.27;4.03;;;18.20;99.90;;;;;;5042932;28;20641;-89
2022/10/29 09:12:03;;;;;;;8.33;5.20;;;18.40;99.90;;;;;;5043771;28;21234;-89
2022/10/29 09:14:50;;;;;;;8.33;5.67;;;18.30;99.90;;;;;;5039772;28;20634;-90
2022/10/29 09:17:28;;;;;;;13.73;5.30;;;18.60;99.90;;;;;;5044467;28;20645;-90
2022/10/29 09:20:07;;;;;;;17.33;6.03;;;19.00;99.90;;;;;;5036642;28;20633;-89
2022/10/29 09:22:49;;;;;;;11.73;5.90;;;19.40;99.90;;;;;;5049552;28;20633;-89
2022/10/29 09:25:20;;;;;;;19.00;6.80;;;19.90;99.90;;;;;;5041280;28;20630;-89
2022/10/29 09:28:00;;;;;;;12.97;5.27;;;20.10;99.90;;;;;;5045886;28;20657;-89
2022/10/29 09:30:30;;;;;;;9.43;5.33;;;20.50;99.90;;;;;;5048515;28;21247;-89
2022/10/29 09:33:01;;;;;;;12.23;5.13;;;21.00;99.90;;;;;;5040103;28;20625;-89
2022/10/29 09:35:38;;;;;;;9.37;4.17;;;21.00;99.90;;;;;;5039306;28;20634;-89
2022/10/29 09:38:14;;;;;;;7.20;4.40;;;21.00;99.90;;;;;;5041477;28;20680;-89
2022/10/29 09:40:42;;;;;;;9.80;4.77;;;21.20;99.90;;;;;;5037699;28;20634;-89
2022/10/29 09:43:19;;;;;;;11.23;5.40;;;21.60;99.90;;;;;;5040503;28;20619;-88
2022/10/29 09:45:50;;;;;;;7.20;5.03;;;21.40;99.90;;;;;;5046054;28;20634;-89
2022/10/29 09:48:23;;;;;;;6.33;5.07;;;21.90;99.90;;;;;;5038268;28;20579;-89
2022/10/29 09:50:59;;;;;;;6.10;4.57;;;22.00;99.90;;;;;;5042410;28;20661;-89
2022/10/29 09:53:28;;;;;;;10.00;5.30;;;21.60;99.90;;;;;;5038789;28;20637;-89
2022/10/29 09:55:55;;;;;;;6.83;4.47;;;22.00;99.90;;;;;;5037778;28;20633;-89
2022/10/29 09:58:24;;;;;;;13.67;5.63;;;23.00;99.90;;;;;;5041506;28;20693;-89
2022/10/29 10:00:52;;;;;;;8.70;5.00;;;22.80;99.90;;;;;;5043586;28;20626;-89
2022/10/29 10:03:24;;;;;;;6.90;4.77;;;23.70;99.90;;;;;;5042420;28;20635;-89
2022/10/29 10:06:02;;;;;;;7.33;5.23;;;24.10;99.90;;;;;;5041961;28;20621;-90
2022/10/29 10:08:32;;;;;;;13.10;5.37;;;24.90;98.40;;;;;;5040954;28;20725;-90
2022/10/29 10:11:01;;;;;;;7.80;4.60;;;25.90;94.30;;;;;;5042178;28;20629;-90
2022/10/29 10:13:31;;;;;;;9.57;5.20;;;25.40;93.70;;;;;;5040558;28;20621;-90
2022/10/29 10:15:59;;;;;;;9.60;6.00;;;25.90;93.30;;;;;;5034951;28;20657;-90
2022/10/29 10:18:28;;;;;;;7.23;4.43;;;25.50;93.30;;;;;;5048233;28;20665;-90
2022/10/29 10:21:08;;;;;;;7.07;4.20;;;25.80;91.80;;;;;;5047619;28;20642;-90
2022/10/29 10:23:45;;;;;;;9.23;5.10;;;25.80;90.90;;;;;;5046050;28;20625;-89
2022/10/29 10:26:33;;;;;;;5.20;4.70;;;25.20;94.90;;;;;;5038866;28;21009;-90
2022/10/29 10:29:13;;;;;;;9.53;4.73;;;26.00;91.00;;;;;;5028729;28;20625;-90
2022/10/29 10:31:43;;;;;;;6.17;4.20;;;26.80;87.10;;;;;;5039989;28;20633;-91
2022/10/29 10:34:18;;;;;;;13.87;4.60;;;26.50;82.80;;;;;;5042853;28;20637;-89
2022/10/29 10:36:49;;;;;;;10.13;5.20;;;26.40;82.80;;;;;;5043683;28;20668;-91
2022/10/29 10:39:26;;;;;;;7.70;4.30;;;26.60;79.30;;;;;;5046978;28;20654;-90
2022/10/29 10:41:54;;;;;;;7.93;5.47;;;26.80;75.20;;;;;;5046037;28;20678;-92
2022/10/29 10:44:23;;;;;;;8.03;4.47;;;27.80;74.20;;;;;;5046945;28;21161;-89
2022/10/29 10:46:51;;;;;;;7.47;5.10;;;27.90;72.70;;;;;;5043052;28;20653;-92
2022/10/29 10:49:25;;;;;;;12.97;4.80;;;28.20;71.20;;;;;;5042726;28;20614;-91
2022/10/29 10:51:54;;;;;;;11.40;4.77;;;27.50;71.60;;;;;;5036830;28;20625;-91
2022/10/29 10:54:32;;;;;;;13.03;4.67;;;28.40;67.60;;;;;;5046445;28;20673;-92
2022/10/29 10:57:01;;;;;;;12.07;5.13;;;29.40;63.00;;;;;;5037696;28;20680;-91
2022/10/29 10:59:44;;;;;;;10.80;5.00;;;30.30;60.70;;;;;;5043359;28;20653;-91
2022/10/29 11:02:23;;;;;;;8.97;4.60;;;27.80;63.80;;;;;;5040142;28;20628;-92
2022/10/29 11:04:56;;;;;;;12.30;4.40;;;28.70;63.60;;;;;;5046113;28;20636;-91
2022/10/29 11:07:25;;;;;;;8.60;4.10;;;28.80;61.00;;;;;;5044585;28;20750;-92
2022/10/29 11:09:56;;;;;;;7.83;4.40;;;28.80;58.50;;;;;;5044608;28;20625;-91
2022/10/29 11:12:34;;;;;;;7.37;4.23;;;29.00;59.40;;;;;;5037524;28;21150;-92
2022/10/29 11:15:06;;;;;;;11.70;4.33;;;29.70;58.70;;;;;;5043218;28;21181;-94
2022/10/29 11:17:39;;;;;;;11.00;5.03;;;29.30;58.80;;;;;;5046858;28;20748;-92
2022/10/29 11:20:13;;;;;;;6.40;3.73;;;29.70;57.90;;;;;;5047450;28;20671;-92
2022/10/29 11:22:52;;;;;;;7.70;4.33;;;30.00;55.50;;;;;;5053023;28;20621;-92
2022/10/29 11:25:28;;;;;;;12.83;5.20;;;30.60;57.30;;;;;;5045812;28;20709;-91
2022/10/29 11:28:01;;;;;;;10.17;4.73;;;31.00;54.80;;;;;;5044299;28;20644;-92
2022/10/29 11:30:29;;;;;;;13.30;4.80;;;30.50;57.20;;;;;;5065386;28;20625;-92
2022/10/29 11:33:07;;;;;;;10.07;5.20;;;31.90;54.90;;;;;;5055735;28;20677;-94
2022/10/29 11:35:41;;;;;;;11.87;5.00;;;31.90;55.30;;;;;;5063288;28;20661;-93
2022/10/29 11:38:14;;;;;;;6.40;4.20;;;32.90;52.30;;;;;;5067985;28;20629;-95
2022/10/29 11:40:47;;;;;;;14.43;4.20;;;32.90;52.10;;;;;;5068726;28;20215;-94
2022/10/29 11:43:18;;;;;;;9.40;4.20;;;32.80;50.90;;;;;;5053663;28;20211;-94
2022/10/29 11:45:55;;;;;;;8.80;4.10;;;32.50;49.60;;;;;;5057967;28;20664;-95
2022/10/29 11:48:34;;;;;;;12.90;4.60;;;32.70;49.70;;;;;;5048448;28;21008;-95
2022/10/29 11:51:15;;;;;;;11.53;4.40;;;33.00;49.10;;;;;;5044387;28;20199;-94
2022/10/29 11:53:56;;;;;;;9.30;4.03;;;33.10;49.60;;;;;;5046748;28;20226;-95
2022/10/29 11:56:35;;;;;;;7.43;4.27;;;33.10;48.80;;;;;;5047853;28;20246;-95
2022/10/29 11:59:11;;;;;;;8.90;4.87;;;33.30;48.10;;;;;;5040470;28;20280;-95
2022/10/29 12:01:48;;;;;;;13.27;4.63;;;33.40;47.80;;;;;;5048266;28;20209;-93
2022/10/29 12:04:24;;;;;;;7.67;4.47;;;33.70;48.10;;;;;;5037189;28;20211;-95
2022/10/29 12:07:02;;;;;;;12.20;4.63;;;34.30;46.80;;;;;;5041492;28;20223;-94
2022/10/29 12:10:03;;;;;;;12.63;4.03;;;34.50;45.70;;;;;;5040433;28;20199;-95
2022/10/29 12:12:38;;;;;;;8.90;5.13;;;34.70;45.20;;;;;;5045105;28;20203;-95
2022/10/29 12:15:19;;;;;;;9.02;4.57;;;34.80;44.50;;;;;;5037578;28;20289;-95
2022/10/29 12:17:54;;;;;;;10.65;4.55;;;35.00;44.50;;;;;;5043217;28;20229;-95
2022/10/29 12:20:28;;;;;;;10.43;4.75;;;35.20;44.00;;;;;;5039505;28;20223;-96
2022/10/29 12:23:00;;;;;;;7.47;4.32;;;34.70;43.70;;;;;;5042226;28;20572;-95
2022/10/29 12:25:38;;;;;;;12.50;5.20;;;34.60;44.20;;;;;;5046781;28;20214;-94
2022/10/29 12:28:18;;;;;;;8.80;4.80;;;34.80;44.40;;;;;;5050169;28;20252;-96
2022/10/29 12:30:53;;;;;;;8.18;5.38;;;34.70;44.60;;;;;;5045223;28;20207;-96
2022/10/29 12:33:25;;;;;;;11.93;4.88;;;34.50;44.80;;;;;;5034042;28;20199;-95
2022/10/29 12:35:59;;;;;;;9.85;5.35;;;34.30;44.80;;;;;;5044316;28;22213;-93
2022/10/29 12:38:37;;;;;;;7.72;4.43;;;34.30;45.00;;;;;;5039796;28;20211;-95
2022/10/29 12:41:08;;;;;;;12.23;5.60;;;34.30;44.80;;;;;;5042294;28;20198;-96
2022/10/29 12:43:39;;;;;;;11.15;5.10;;;34.10;45.00;;;;;;5043100;28;20208;-94
2022/10/29 12:46:17;;;;;;;7.93;5.00;;;33.90;45.00;;;;;;5038692;28;20254;-93
2022/10/29 12:48:55;;;;;;;12.57;4.97;;;33.50;45.60;;;;;;5046958;28;20290;-95
2022/10/29 12:51:32;;;;;;;13.50;4.77;;;33.00;46.20;;;;;;5036588;28;20207;-94
2022/10/29 12:54:23;;;;;;;9.37;4.27;;;33.10;46.80;;;;;;5039501;28;20404;-93
2022/10/29 12:56:50;;;;;;;10.57;5.53;;;33.10;46.50;;;;;;5044479;28;20795;-94
2022/10/29 12:59:30;;;;;;;17.13;5.60;;;33.30;47.20;;;;;;5038832;28;20624;-94